Time;durP1;ratioP1;P1;durP2;ratioP2;P2;SDS_P1;SDS_P2;PMS_P1;PMS_P2;Temp;Humidity;BMP_temperature;BMP_pressure;BME280_temperature;BME280_humidity;BME280_pressure;Samples;Min_cycle;Max_cycle;Signal;HPM_P1;HPM_P2
2022/02/12 00:00:50;;;;;;;1.20;0.50;;;17.90;45.20;;;;;;5062877;28;20496;-62
2022/02/12 00:03:21;;;;;;;0.90;0.70;;;17.80;45.20;;;;;;5062557;28;20448;-63
2022/02/12 00:05:52;;;;;;;0.90;0.63;;;17.80;43.60;;;;;;5062320;28;20480;-63
2022/02/12 00:08:25;;;;;;;0.90;0.70;;;17.70;46.00;;;;;;5062260;28;20419;-62
2022/02/12 00:10:57;;;;;;;0.70;0.70;;;17.60;45.50;;;;;;5062229;28;20871;-62
2022/02/12 00:13:28;;;;;;;1.53;0.63;;;17.60;43.60;;;;;;5062757;28;20503;-63
2022/02/12 00:16:00;;;;;;;1.10;1.00;;;17.60;44.00;;;;;;5062269;28;20515;-62
2022/02/12 00:18:31;;;;;;;1.27;0.60;;;17.50;45.60;;;;;;5062718;28;20822;-62
2022/02/12 00:21:02;;;;;;;0.70;0.70;;;17.40;45.70;;;;;;5062545;28;20444;-62
2022/02/12 00:23:34;;;;;;;0.60;0.50;;;17.40;44.50;;;;;;5062418;28;20544;-62
2022/02/12 00:26:07;;;;;;;1.27;0.67;;;17.30;44.30;;;;;;5062387;28;20518;-62
2022/02/12 00:28:42;;;;;;;0.53;0.53;;;17.30;44.40;;;;;;5062381;28;20460;-61
2022/02/12 00:31:12;;;;;;;1.17;0.80;;;17.10;44.40;;;;;;5062891;28;20519;-61
2022/02/12 00:33:44;;;;;;;0.70;0.53;;;17.10;44.60;;;;;;5062013;28;20514;-62
2022/02/12 00:36:15;;;;;;;1.47;0.80;;;17.10;43.30;;;;;;5062377;28;20469;-62
2022/02/12 00:38:47;;;;;;;1.97;0.57;;;17.00;43.30;;;;;;5061265;28;20447;-61
2022/02/12 00:41:18;;;;;;;0.63;0.63;;;17.00;43.20;;;;;;5062624;28;20451;-61
2022/02/12 00:43:49;;;;;;;1.57;0.70;;;16.90;44.10;;;;;;5061885;28;20415;-62
2022/02/12 00:46:20;;;;;;;0.90;0.70;;;16.70;43.80;;;;;;5062479;28;20750;-63
2022/02/12 00:48:51;;;;;;;0.70;0.70;;;16.70;42.80;;;;;;5062324;28;20844;-62
2022/02/12 00:51:22;;;;;;;2.63;1.13;;;16.60;43.80;;;;;;5062675;28;20512;-61
2022/02/12 00:53:55;;;;;;;2.57;2.10;;;16.50;44.00;;;;;;5062119;28;20488;-62
2022/02/12 00:56:26;;;;;;;0.90;0.80;;;16.50;43.90;;;;;;5082279;28;20414;-62
2022/02/12 00:58:57;;;;;;;0.53;0.53;;;16.40;43.90;;;;;;5082070;28;20914;-62
2022/02/12 01:01:28;;;;;;;1.03;0.70;;;16.30;42.20;;;;;;5082993;28;20416;-62
2022/02/12 01:03:59;;;;;;;0.67;0.67;;;16.20;44.90;;;;;;5086004;28;20524;-63
2022/02/12 01:06:30;;;;;;;1.70;0.80;;;16.10;42.90;;;;;;5066003;28;20519;-61
2022/02/12 01:09:04;;;;;;;0.87;0.50;;;15.90;43.70;;;;;;5065159;28;20444;-62
2022/02/12 01:11:35;;;;;;;5.03;0.83;;;16.00;41.30;;;;;;5065994;28;20809;-61
2022/02/12 01:14:07;;;;;;;0.57;0.57;;;16.00;42.80;;;;;;5065087;28;20482;-62
2022/02/12 01:16:38;;;;;;;0.60;0.60;;;15.90;43.40;;;;;;5065938;28;20448;-62
2022/02/12 01:19:09;;;;;;;1.03;0.60;;;15.80;41.70;;;;;;5065594;28;20560;-62
2022/02/12 01:21:40;;;;;;;1.00;0.70;;;15.70;42.90;;;;;;5065711;28;20498;-62
2022/02/12 01:24:12;;;;;;;3.40;0.80;;;15.60;42.90;;;;;;5064868;28;20484;-62
2022/02/12 01:26:44;;;;;;;1.20;0.60;;;15.50;44.00;;;;;;5065213;28;20535;-62
2022/02/12 01:29:15;;;;;;;0.87;0.60;;;15.60;41.90;;;;;;5065160;28;20519;-61
2022/02/12 01:31:46;;;;;;;0.93;0.63;;;15.50;42.20;;;;;;5065907;28;20437;-61
2022/02/12 01:34:17;;;;;;;0.70;0.70;;;15.40;43.40;;;;;;5065267;28;20527;-62
2022/02/12 01:36:48;;;;;;;1.30;0.80;;;15.30;43.00;;;;;;5064956;28;20532;-62
2022/02/12 01:39:21;;;;;;;0.80;0.80;;;15.30;44.20;;;;;;5064361;28;20486;-62
2022/02/12 01:41:53;;;;;;;2.03;0.83;;;15.10;44.50;;;;;;5065347;28;20451;-63
2022/02/12 01:44:33;;;;;;;1.07;0.80;;;15.00;46.50;;;;;;5064187;28;20440;-63
2022/02/12 01:47:04;;;;;;;1.40;0.90;;;14.90;45.80;;;;;;5064847;28;20520;-62
2022/02/12 01:49:36;;;;;;;1.00;0.90;;;14.70;44.90;;;;;;5064870;28;20452;-62
2022/02/12 01:52:09;;;;;;;1.33;0.90;;;14.80;44.50;;;;;;5064479;28;20458;-62
2022/02/12 01:54:43;;;;;;;0.83;0.83;;;14.70;46.00;;;;;;5071495;28;20842;-62
2022/02/12 01:57:14;;;;;;;0.93;0.83;;;14.60;45.70;;;;;;5084534;28;20475;-63
2022/02/12 01:59:45;;;;;;;0.60;0.50;;;14.60;45.60;;;;;;5084291;28;20455;-62
2022/02/12 02:02:16;;;;;;;3.00;0.70;;;14.50;45.70;;;;;;5085157;28;20463;-62
2022/02/12 02:04:48;;;;;;;0.80;0.70;;;14.50;46.70;;;;;;5084786;28;20535;-62
2022/02/12 02:07:20;;;;;;;1.10;0.70;;;14.30;47.10;;;;;;5084359;28;20463;-62
2022/02/12 02:09:55;;;;;;;1.07;0.70;;;14.30;47.70;;;;;;5084350;28;20447;-62
2022/02/12 02:12:25;;;;;;;0.70;0.60;;;14.20;47.70;;;;;;5084229;28;20466;-63
2022/02/12 02:14:57;;;;;;;0.73;0.73;;;14.10;47.10;;;;;;5083885;28;20479;-63
2022/02/12 02:17:28;;;;;;;2.13;0.87;;;14.10;48.10;;;;;;5084520;28;20903;-62
2022/02/12 02:19:59;;;;;;;0.83;0.60;;;14.00;47.80;;;;;;5084207;28;20451;-62
2022/02/12 02:22:35;;;;;;;2.23;1.20;;;14.00;48.20;;;;;;5083634;28;20952;-62
2022/02/12 02:25:08;;;;;;;0.77;0.60;;;13.90;48.50;;;;;;5083954;28;21030;-62
2022/02/12 02:27:39;;;;;;;0.90;0.73;;;13.90;47.70;;;;;;5083773;28;20529;-62
2022/02/12 02:30:15;;;;;;;3.57;1.00;;;13.90;47.80;;;;;;5083774;28;20512;-62
2022/02/12 02:32:46;;;;;;;1.20;0.83;;;13.80;48.60;;;;;;5084321;28;20456;-62
2022/02/12 02:35:19;;;;;;;1.30;1.20;;;13.70;49.10;;;;;;5083618;28;20495;-63
2022/02/12 02:37:51;;;;;;;1.10;1.00;;;13.70;48.50;;;;;;5083276;28;20527;-62
2022/02/12 02:40:24;;;;;;;1.00;0.90;;;13.70;50.70;;;;;;5083586;28;20522;-62
2022/02/12 02:42:55;;;;;;;0.90;0.90;;;13.60;49.30;;;;;;5083839;28;20471;-62
2022/02/12 02:45:27;;;;;;;1.47;1.00;;;13.50;49.60;;;;;;5063790;28;20449;-63
2022/02/12 02:48:00;;;;;;;1.03;0.90;;;13.40;50.60;;;;;;5064018;28;20639;-62
2022/02/12 02:56:12;;;;;;;1.43;1.30;;;13.20;50.50;;;;;;5082070;28;20482;-62
2022/02/12 02:58:44;;;;;;;1.90;1.03;;;13.20;52.20;;;;;;5083184;28;20447;-62
2022/02/12 03:01:17;;;;;;;1.20;0.97;;;13.20;50.70;;;;;;5083672;28;20479;-62
2022/02/12 03:03:49;;;;;;;1.13;0.83;;;13.20;50.40;;;;;;5083250;28;20445;-63
2022/02/12 03:06:22;;;;;;;1.20;1.00;;;13.10;51.60;;;;;;5083595;28;20489;-63
2022/02/12 03:08:53;;;;;;;1.33;0.90;;;13.10;50.90;;;;;;5083283;28;20545;-62
2022/02/12 03:11:26;;;;;;;3.70;1.43;;;13.00;51.40;;;;;;5083759;28;20447;-62
2022/02/12 03:13:57;;;;;;;2.20;1.00;;;13.00;51.50;;;;;;5082747;28;20473;-62
2022/02/12 03:16:28;;;;;;;1.10;1.00;;;12.90;51.90;;;;;;5083046;28;20451;-62
2022/02/12 03:18:59;;;;;;;1.20;1.10;;;12.80;53.10;;;;;;5083068;28;20454;-62
2022/02/12 03:21:30;;;;;;;1.77;1.43;;;12.80;52.50;;;;;;5083765;28;20916;-62
2022/02/12 03:24:01;;;;;;;1.87;1.10;;;12.80;53.30;;;;;;5064477;28;20446;-63
2022/02/12 03:26:34;;;;;;;1.03;0.87;;;12.70;52.30;;;;;;5062562;28;20448;-63
2022/02/12 03:29:05;;;;;;;1.67;1.30;;;12.70;52.30;;;;;;5062730;28;20455;-63
2022/02/12 03:31:36;;;;;;;1.10;1.10;;;12.70;52.20;;;;;;5062951;28;20445;-63
2022/02/12 03:34:07;;;;;;;2.47;1.20;;;12.80;50.80;;;;;;5062856;28;20440;-63
2022/02/12 03:36:38;;;;;;;1.30;1.20;;;12.80;52.40;;;;;;5063103;28;20502;-63
2022/02/12 03:39:09;;;;;;;2.07;1.50;;;12.70;52.20;;;;;;5062264;28;20504;-63
2022/02/12 03:41:41;;;;;;;0.90;0.90;;;12.60;53.50;;;;;;5062957;28;20516;-63
2022/02/12 03:44:12;;;;;;;1.27;1.00;;;12.50;52.60;;;;;;5062290;28;20455;-63
2022/02/12 03:46:43;;;;;;;3.03;0.83;;;12.60;51.50;;;;;;5062867;28;20483;-63
2022/02/12 03:49:14;;;;;;;1.10;1.10;;;12.70;51.60;;;;;;5062843;28;20934;-64
2022/02/12 03:51:45;;;;;;;2.10;1.47;;;12.60;52.20;;;;;;5063444;28;20510;-63
2022/02/12 03:54:16;;;;;;;1.57;0.83;;;12.50;52.60;;;;;;5065727;28;20447;-64
2022/02/12 03:56:48;;;;;;;1.57;1.03;;;12.50;53.40;;;;;;5082618;28;20487;-64
2022/02/12 03:59:20;;;;;;;1.67;1.57;;;12.40;52.10;;;;;;5082585;28;20454;-64
2022/02/12 04:01:52;;;;;;;1.40;1.30;;;12.50;53.00;;;;;;5083047;28;20451;-62
2022/02/12 04:04:24;;;;;;;1.40;1.30;;;12.30;52.90;;;;;;5079385;28;20440;-64
2022/02/12 04:06:54;;;;;;;1.90;1.40;;;12.40;52.40;;;;;;5062781;28;20429;-64
2022/02/12 04:09:25;;;;;;;3.70;1.60;;;12.30;53.10;;;;;;5062333;28;20444;-64
2022/02/12 04:11:58;;;;;;;1.20;1.10;;;12.30;52.80;;;;;;5062804;28;20454;-64
2022/02/12 04:14:29;;;;;;;1.23;1.00;;;12.20;53.20;;;;;;5062219;28;20470;-63
2022/02/12 04:17:00;;;;;;;1.33;1.13;;;12.30;52.20;;;;;;5062240;28;20486;-63
2022/02/12 04:19:31;;;;;;;1.20;0.93;;;12.20;53.00;;;;;;5062346;28;20469;-64
2022/02/12 04:22:02;;;;;;;1.37;1.17;;;12.20;53.40;;;;;;5065633;28;20442;-63
2022/02/12 04:24:33;;;;;;;1.63;1.00;;;12.10;53.40;;;;;;5082353;28;20582;-63
2022/02/12 04:27:06;;;;;;;0.90;0.90;;;12.10;52.00;;;;;;5082651;28;20451;-63
2022/02/12 04:29:38;;;;;;;1.37;1.27;;;12.20;52.70;;;;;;5082089;28;20496;-63
2022/02/12 04:32:10;;;;;;;1.40;1.30;;;12.10;53.00;;;;;;5082663;28;20443;-63
2022/02/12 04:34:41;;;;;;;1.50;1.30;;;12.20;52.90;;;;;;5082520;28;20465;-63
2022/02/12 04:37:11;;;;;;;1.33;1.20;;;12.10;51.60;;;;;;5083072;28;20442;-63
2022/02/12 04:39:43;;;;;;;1.50;1.40;;;12.10;52.30;;;;;;5086151;28;20497;-63
2022/02/12 04:42:17;;;;;;;1.10;1.00;;;12.10;51.60;;;;;;5086376;28;20447;-63
2022/02/12 04:44:50;;;;;;;1.10;0.90;;;12.10;52.10;;;;;;5085709;28;20451;-63
2022/02/12 04:47:24;;;;;;;1.30;1.20;;;12.00;51.70;;;;;;5085902;28;20601;-63
2022/02/12 04:49:55;;;;;;;1.60;1.10;;;12.10;51.30;;;;;;5086315;28;20445;-63
2022/02/12 04:52:26;;;;;;;1.23;1.13;;;12.00;51.20;;;;;;5086390;28;20479;-63
2022/02/12 04:54:57;;;;;;;1.20;1.10;;;12.00;51.30;;;;;;5085845;28;20947;-63
2022/02/12 04:57:30;;;;;;;1.10;1.10;;;12.10;49.80;;;;;;5086025;28;20931;-63
2022/02/12 05:00:01;;;;;;;1.57;1.30;;;12.00;51.60;;;;;;5085713;28;20458;-63
2022/02/12 05:02:32;;;;;;;1.30;1.20;;;12.00;50.10;;;;;;5086141;28;20443;-63
2022/02/12 05:05:02;;;;;;;1.20;1.10;;;11.90;51.10;;;;;;5085873;28;20919;-62
2022/02/12 05:07:34;;;;;;;1.77;1.30;;;11.90;50.60;;;;;;5085855;28;20426;-63
2022/02/12 05:10:05;;;;;;;1.60;1.20;;;11.90;50.80;;;;;;5085814;28;20436;-63
2022/02/12 05:12:37;;;;;;;3.07;1.53;;;11.80;52.50;;;;;;5086253;28;20547;-63
2022/02/12 05:15:10;;;;;;;1.27;1.23;;;11.50;52.00;;;;;;5085330;28;20459;-63
2022/02/12 05:17:40;;;;;;;2.27;1.30;;;11.40;53.30;;;;;;5085587;28;20512;-63
2022/02/12 05:20:12;;;;;;;1.33;1.23;;;11.40;51.70;;;;;;5085764;28;20428;-63
2022/02/12 05:22:43;;;;;;;1.20;1.10;;;11.30;53.50;;;;;;5085840;28;20424;-63
2022/02/12 05:25:14;;;;;;;1.37;1.27;;;11.10;54.20;;;;;;5085451;28;20447;-63
2022/02/12 05:27:46;;;;;;;2.43;2.03;;;11.00;52.10;;;;;;5085594;28;20566;-63
2022/02/12 05:30:17;;;;;;;1.20;1.10;;;10.90;53.40;;;;;;5085167;28;20530;-63
2022/02/12 05:32:49;;;;;;;1.43;1.00;;;11.10;51.10;;;;;;5085585;28;21037;-63
2022/02/12 05:35:20;;;;;;;1.33;1.23;;;11.10;50.60;;;;;;5085196;28;20454;-63
2022/02/12 05:37:51;;;;;;;1.53;1.17;;;11.10;51.10;;;;;;5085404;28;20554;-63
2022/02/12 05:40:22;;;;;;;1.27;1.20;;;11.00;52.80;;;;;;5084957;28;20456;-63
2022/02/12 05:42:54;;;;;;;1.73;1.10;;;10.90;52.40;;;;;;5085194;28;20954;-63
2022/02/12 05:45:25;;;;;;;3.20;1.30;;;10.80;53.20;;;;;;5084384;28;20450;-63
2022/02/12 05:47:56;;;;;;;1.60;1.30;;;10.70;53.40;;;;;;5084921;28;20450;-63
2022/02/12 05:50:29;;;;;;;2.30;1.30;;;10.60;54.80;;;;;;5085466;28;20528;-63
2022/02/12 05:52:59;;;;;;;2.13;1.80;;;10.50;55.00;;;;;;5085039;28;20428;-63
2022/02/12 05:55:30;;;;;;;1.27;1.17;;;10.40;55.60;;;;;;5084615;28;20961;-63
2022/02/12 05:58:03;;;;;;;1.50;1.40;;;10.30;53.70;;;;;;5084703;28;20504;-63
2022/02/12 06:00:34;;;;;;;2.10;1.27;;;10.30;54.20;;;;;;5084508;28;20509;-63
2022/02/12 06:03:05;;;;;;;2.70;1.47;;;10.40;52.50;;;;;;5085072;28;20447;-63
2022/02/12 06:05:36;;;;;;;2.20;1.43;;;10.40;54.30;;;;;;5085205;28;20489;-63
2022/02/12 06:08:07;;;;;;;4.00;1.90;;;10.30;55.30;;;;;;5085012;28;20523;-63
2022/02/12 06:10:38;;;;;;;1.90;1.43;;;10.10;55.30;;;;;;5083805;28;20447;-63
2022/02/12 06:13:11;;;;;;;1.53;1.30;;;10.10;54.60;;;;;;5084567;28;20848;-63
2022/02/12 06:15:42;;;;;;;2.20;2.00;;;10.00;55.10;;;;;;5083861;28;20455;-63
2022/02/12 06:18:13;;;;;;;1.10;1.00;;;9.90;56.60;;;;;;5084469;28;20453;-63
2022/02/12 06:20:44;;;;;;;1.20;1.10;;;9.90;55.70;;;;;;5084295;28;20526;-63
2022/02/12 06:23:16;;;;;;;1.07;1.00;;;9.90;54.40;;;;;;5072143;28;20202;-63
2022/02/12 06:25:50;;;;;;;1.30;1.10;;;10.00;53.30;;;;;;5063854;28;20464;-63
2022/02/12 06:28:23;;;;;;;1.08;0.95;;;10.00;52.70;;;;;;5064195;28;20444;-63
2022/02/12 06:30:54;;;;;;;1.83;1.38;;;10.10;52.20;;;;;;5063458;28;20269;-63
2022/02/12 06:33:27;;;;;;;1.13;1.00;;;10.10;53.30;;;;;;5063966;28;20243;-63
2022/02/12 06:35:58;;;;;;;1.43;1.20;;;9.90;55.20;;;;;;5064259;28;20468;-63
2022/02/12 06:38:29;;;;;;;1.73;1.00;;;9.90;54.20;;;;;;5063714;28;20559;-63
2022/02/12 06:41:00;;;;;;;2.43;1.00;;;9.80;54.50;;;;;;5063227;28;20959;-63
2022/02/12 06:43:33;;;;;;;1.27;1.17;;;9.80;52.70;;;;;;5064823;28;20532;-63
2022/02/12 06:46:04;;;;;;;1.40;1.13;;;9.90;55.30;;;;;;5083508;28;20467;-63
2022/02/12 06:48:36;;;;;;;1.33;1.10;;;9.70;57.60;;;;;;5083656;28;20450;-63
2022/02/12 06:51:07;;;;;;;1.48;0.90;;;9.70;56.30;;;;;;5083985;28;20231;-63
2022/02/12 06:53:38;;;;;;;1.13;1.02;;;9.60;55.40;;;;;;5083073;28;20236;-63
2022/02/12 06:56:09;;;;;;;0.83;0.83;;;9.60;55.30;;;;;;5083624;28;20205;-63
2022/02/12 06:58:44;;;;;;;1.00;1.00;;;9.50;56.00;;;;;;5083109;28;20850;-63
2022/02/12 07:01:15;;;;;;;1.50;1.20;;;9.40;55.70;;;;;;5082495;28;20887;-63
2022/02/12 07:03:45;;;;;;;1.40;1.30;;;9.50;55.40;;;;;;5083172;28;20511;-63
2022/02/12 07:06:16;;;;;;;1.00;0.90;;;9.40;55.50;;;;;;5064826;28;20475;-63
2022/02/12 07:09:04;;;;;;;1.07;1.07;;;9.40;55.60;;;;;;5062600;28;20505;-64
2022/02/12 07:11:48;;;;;;;2.65;1.40;;;9.40;56.40;;;;;;5059054;28;20980;-63
2022/02/12 07:14:21;;;;;;;1.27;1.17;;;9.30;55.30;;;;;;5062765;28;20241;-63
2022/02/12 07:16:52;;;;;;;1.38;1.10;;;9.30;55.80;;;;;;5063225;28;20773;-63
2022/02/12 07:19:23;;;;;;;1.52;1.33;;;9.20;55.20;;;;;;5062881;28;20252;-63
2022/02/12 07:21:54;;;;;;;2.13;0.85;;;9.30;55.70;;;;;;5063215;28;20190;-63
2022/02/12 07:24:25;;;;;;;1.35;1.25;;;9.20;56.50;;;;;;5063126;28;20241;-63
2022/02/12 07:26:56;;;;;;;1.30;1.00;;;9.00;57.50;;;;;;5063348;28;20301;-63
2022/02/12 07:29:29;;;;;;;1.33;1.20;;;9.00;55.60;;;;;;5062332;28;20448;-63
2022/02/12 07:32:00;;;;;;;2.20;0.90;;;9.10;56.60;;;;;;5062923;28;20683;-63
2022/02/12 07:34:31;;;;;;;1.20;1.10;;;8.90;58.50;;;;;;5063044;28;20229;-63
2022/02/12 07:37:02;;;;;;;1.00;0.90;;;9.00;58.40;;;;;;5062622;28;20225;-63
2022/02/12 07:39:33;;;;;;;1.30;1.20;;;8.90;56.70;;;;;;5062550;28;20257;-63
2022/02/12 07:42:04;;;;;;;1.25;1.15;;;8.70;57.30;;;;;;5062895;28;20213;-63
2022/02/12 07:44:37;;;;;;;1.10;1.00;;;8.70;57.60;;;;;;5072155;28;20223;-63
2022/02/12 07:47:08;;;;;;;0.95;0.95;;;8.60;58.60;;;;;;5083001;28;20213;-63
2022/02/12 07:49:39;;;;;;;1.90;1.27;;;8.40;59.60;;;;;;5082562;28;20228;-63
2022/02/12 07:52:10;;;;;;;1.25;1.08;;;8.30;60.50;;;;;;5082428;28;20207;-62
2022/02/12 07:54:41;;;;;;;1.20;1.10;;;8.20;60.90;;;;;;5083075;28;20610;-62
2022/02/12 07:57:12;;;;;;;1.10;1.00;;;8.20;61.70;;;;;;5082696;28;20272;-62
2022/02/12 07:59:45;;;;;;;1.60;1.50;;;8.10;63.00;;;;;;5082482;28;20208;-62
2022/02/12 08:02:16;;;;;;;3.05;1.85;;;8.00;63.00;;;;;;5082695;28;20213;-62
2022/02/12 08:04:47;;;;;;;2.38;1.90;;;7.90;64.10;;;;;;5082823;28;20209;-62
2022/02/12 08:07:30;;;;;;;3.10;1.80;;;7.80;68.70;;;;;;5082512;28;20199;-62
2022/02/12 08:10:02;;;;;;;4.78;3.00;;;7.70;72.90;;;;;;5082441;28;20292;-62
2022/02/12 08:12:54;;;;;;;4.45;3.28;;;7.60;72.30;;;;;;5086818;28;20319;-62
2022/02/12 08:15:28;;;;;;;3.60;2.92;;;7.50;74.40;;;;;;5086149;28;20215;-62
2022/02/12 08:18:02;;;;;;;4.30;3.85;;;7.50;77.20;;;;;;5086608;28;20260;-62
2022/02/12 08:20:33;;;;;;;5.88;3.72;;;7.40;80.70;;;;;;5086312;28;20201;-62
2022/02/12 08:23:05;;;;;;;3.38;3.08;;;7.40;84.10;;;;;;5086272;28;20269;-62
2022/02/12 08:25:36;;;;;;;5.03;3.65;;;7.30;87.10;;;;;;5085985;28;20296;-62
2022/02/12 08:28:10;;;;;;;5.93;3.78;;;7.30;90.20;;;;;;5087044;28;20185;-62
2022/02/12 08:30:42;;;;;;;5.10;4.70;;;7.20;92.20;;;;;;5085474;28;20236;-62
2022/02/12 08:33:14;;;;;;;5.28;4.75;;;7.10;92.10;;;;;;5080857;28;20205;-62
2022/02/12 08:35:56;;;;;;;4.70;4.10;;;7.00;93.30;;;;;;5066225;28;20294;-62
2022/02/12 08:38:27;;;;;;;5.63;4.57;;;7.00;94.10;;;;;;5065607;28;20242;-62
2022/02/12 08:40:58;;;;;;;6.25;3.72;;;7.00;95.60;;;;;;5065576;28;20202;-62
2022/02/12 08:43:28;;;;;;;6.35;4.78;;;6.80;97.30;;;;;;5067303;28;20202;-62
2022/02/12 08:46:03;;;;;;;7.30;4.80;;;6.80;98.40;;;;;;5086029;28;20232;-61
2022/02/12 08:48:36;;;;;;;5.63;4.82;;;6.70;99.80;;;;;;5086377;28;20209;-62
2022/02/12 08:51:08;;;;;;;5.75;4.68;;;6.50;99.90;;;;;;5085849;28;20276;-62
2022/02/12 08:53:39;;;;;;;5.93;4.60;;;6.50;99.90;;;;;;5085253;28;20287;-62
2022/02/12 08:56:10;;;;;;;6.38;4.72;;;6.50;99.90;;;;;;5086241;28;20205;-62
2022/02/12 08:58:41;;;;;;;4.95;4.45;;;6.50;99.90;;;;;;5085932;28;20291;-62
2022/02/12 09:01:14;;;;;;;5.95;4.70;;;6.50;99.90;;;;;;5085684;28;20209;-62
2022/02/12 09:03:46;;;;;;;4.85;4.25;;;6.50;99.90;;;;;;5085742;28;20247;-62
2022/02/12 09:06:16;;;;;;;6.45;5.47;;;6.50;99.90;;;;;;5066878;28;20214;-62
2022/02/12 09:08:51;;;;;;;5.30;4.80;;;6.40;99.90;;;;;;5064974;28;20277;-62
2022/02/12 09:11:22;;;;;;;5.70;5.00;;;6.30;99.90;;;;;;5067161;28;20219;-62
2022/02/12 09:13:54;;;;;;;5.97;5.07;;;6.30;99.90;;;;;;5085667;28;20197;-62
2022/02/12 09:16:28;;;;;;;6.00;5.50;;;6.20;99.90;;;;;;5085241;28;20219;-61
2022/02/12 09:18:59;;;;;;;5.95;5.35;;;6.20;99.90;;;;;;5085196;28;20566;-62
2022/02/12 09:21:30;;;;;;;6.20;5.28;;;6.20;99.90;;;;;;5085223;28;20219;-62
2022/02/12 09:24:01;;;;;;;7.25;6.20;;;6.10;99.90;;;;;;5067001;28;20205;-62
2022/02/12 09:26:32;;;;;;;6.18;5.47;;;6.00;99.90;;;;;;5065528;28;20206;-62
2022/02/12 09:29:07;;;;;;;6.47;5.60;;;6.00;99.90;;;;;;5065307;28;20190;-61
2022/02/12 09:31:40;;;;;;;5.85;5.28;;;6.00;99.90;;;;;;5065116;28;20221;-61
2022/02/12 09:34:11;;;;;;;6.00;5.40;;;6.00;99.90;;;;;;5065181;28;20296;-62
2022/02/12 09:36:42;;;;;;;5.38;4.88;;;6.00;99.90;;;;;;5065198;28;20206;-61
2022/02/12 09:39:12;;;;;;;4.90;4.50;;;6.00;99.90;;;;;;5064195;28;20247;-61
2022/02/12 09:41:44;;;;;;;5.50;4.95;;;6.00;99.90;;;;;;5064874;28;20204;-62
2022/02/12 09:44:17;;;;;;;5.00;4.00;;;6.10;99.90;;;;;;5064805;28;20293;-62
2022/02/12 09:47:12;;;;;;;4.57;4.18;;;6.10;99.90;;;;;;5064870;28;20273;-62
2022/02/12 09:49:44;;;;;;;3.92;3.60;;;6.00;99.90;;;;;;5064493;28;20233;-61
2022/02/12 09:52:18;;;;;;;4.13;3.72;;;6.00;99.90;;;;;;5064440;28;20213;-62
2022/02/12 09:55:17;;;;;;;4.50;4.10;;;6.00;99.90;;;;;;5064459;28;20205;-62
2022/02/12 09:58:02;;;;;;;4.25;3.40;;;6.00;99.90;;;;;;5064129;28;20210;-62
2022/02/12 10:00:46;;;;;;;3.72;3.42;;;6.00;99.90;;;;;;5063577;28;20232;-62
2022/02/12 10:03:19;;;;;;;3.05;2.75;;;6.00;99.90;;;;;;5064311;28;20205;-63
2022/02/12 10:09:24;;;;;;;4.07;3.78;;;6.00;99.90;;;;;;5073021;28;20205;-62
2022/02/12 10:12:24;;;;;;;4.05;3.65;;;6.00;99.90;;;;;;5084168;28;20197;-62
2022/02/12 10:15:14;;;;;;;5.45;5.05;;;5.90;99.90;;;;;;5080972;28;20233;-62
2022/02/12 10:17:59;;;;;;;4.63;4.22;;;5.90;99.90;;;;;;5080917;28;20205;-62
2022/02/12 10:20:34;;;;;;;6.25;5.68;;;5.80;99.90;;;;;;5084383;28;20201;-62
2022/02/12 10:23:07;;;;;;;5.97;5.47;;;5.80;99.90;;;;;;5084048;28;20236;-62
2022/02/12 10:25:44;;;;;;;6.97;6.38;;;5.80;99.90;;;;;;5083866;28;20600;-62
2022/02/12 10:28:16;;;;;;;6.97;6.28;;;5.70;99.90;;;;;;5084297;28;20271;-62
2022/02/12 10:30:48;;;;;;;6.72;5.97;;;5.90;99.90;;;;;;5083335;28;20583;-63
2022/02/12 10:33:19;;;;;;;6.53;5.95;;;5.90;99.90;;;;;;5084087;28;20352;-62
2022/02/12 10:35:58;;;;;;;7.10;6.50;;;5.90;99.90;;;;;;5084094;28;20237;-62
2022/02/12 10:38:32;;;;;;;7.32;6.60;;;5.80;99.90;;;;;;5083202;28;20240;-62
2022/02/12 10:41:11;;;;;;;6.60;5.90;;;5.70;99.90;;;;;;5083648;28;20568;-63
2022/02/12 10:43:45;;;;;;;7.22;6.53;;;5.60;99.90;;;;;;5083512;28;20274;-62
2022/02/12 10:46:26;;;;;;;7.15;6.30;;;5.50;99.90;;;;;;5083830;28;20610;-62
2022/02/12 10:48:57;;;;;;;6.53;5.97;;;5.40;99.90;;;;;;5083594;28;20232;-62
2022/02/12 10:51:31;;;;;;;7.03;6.40;;;5.40;99.90;;;;;;5083423;28;20221;-62
2022/02/12 10:54:09;;;;;;;6.30;5.80;;;5.40;99.90;;;;;;5079814;28;20292;-62
2022/02/12 10:56:47;;;;;;;6.53;5.70;;;5.40;99.90;;;;;;5063809;28;20592;-62
2022/02/12 10:59:20;;;;;;;6.93;6.22;;;5.40;99.90;;;;;;5063120;28;20234;-62
2022/02/12 11:01:53;;;;;;;7.10;6.47;;;5.30;99.90;;;;;;5063211;28;20213;-62
2022/02/12 11:04:28;;;;;;;7.03;6.32;;;5.30;99.90;;;;;;5067146;28;20205;-62
2022/02/12 11:07:05;;;;;;;6.95;6.35;;;5.30;99.90;;;;;;5083334;28;20267;-62
2022/02/12 11:09:36;;;;;;;8.00;7.20;;;5.10;99.90;;;;;;5083174;28;20201;-62
2022/02/12 11:12:08;;;;;;;8.48;6.55;;;5.10;99.90;;;;;;5083412;28;20201;-62
2022/02/12 11:14:40;;;;;;;7.13;6.43;;;5.10;99.90;;;;;;5083029;28;20588;-62
2022/02/12 11:17:13;;;;;;;8.40;6.88;;;5.00;99.90;;;;;;5083297;28;20653;-62
2022/02/12 11:19:45;;;;;;;9.10;6.80;;;4.90;99.90;;;;;;5083163;28;20263;-62
2022/02/12 11:22:18;;;;;;;6.68;6.07;;;4.90;99.90;;;;;;5082801;28;20388;-62
2022/02/12 11:24:49;;;;;;;7.20;6.50;;;4.90;99.90;;;;;;5083043;28;20221;-62
2022/02/12 11:27:22;;;;;;;7.82;7.13;;;4.90;99.90;;;;;;5083552;28;20205;-62
2022/02/12 11:29:55;;;;;;;8.95;6.53;;;4.80;99.90;;;;;;5083220;28;20205;-62
2022/02/12 11:32:26;;;;;;;7.55;6.75;;;4.80;99.90;;;;;;5082937;28;20269;-62
2022/02/12 11:35:23;;;;;;;7.55;6.85;;;4.80;99.90;;;;;;5083000;28;20205;-62
2022/02/12 11:37:56;;;;;;;8.82;7.90;;;4.80;99.90;;;;;;5082807;28;20233;-62
2022/02/12 11:40:28;;;;;;;7.60;6.80;;;4.80;99.90;;;;;;5082501;28;20342;-62
2022/02/12 11:43:00;;;;;;;8.57;7.10;;;4.80;99.90;;;;;;5083411;28;20573;-62
2022/02/12 11:45:37;;;;;;;8.15;7.35;;;4.80;99.90;;;;;;5062500;28;20198;-62
2022/02/12 11:48:36;;;;;;;8.50;7.32;;;4.80;99.90;;;;;;5062730;28;20205;-62
2022/02/12 11:51:08;;;;;;;7.60;6.90;;;4.70;99.90;;;;;;5062828;28;20357;-62
2022/02/12 11:53:46;;;;;;;7.90;7.20;;;4.70;99.90;;;;;;5062124;28;20210;-62
2022/02/12 11:56:53;;;;;;;6.80;6.10;;;4.60;99.90;;;;;;5062820;28;20299;-62
2022/02/12 11:59:24;;;;;;;7.88;7.07;;;4.60;99.90;;;;;;5062582;28;20692;-62
2022/02/12 12:01:57;;;;;;;7.00;6.35;;;4.60;99.90;;;;;;5062610;28;20216;-62
2022/02/12 12:04:30;;;;;;;9.02;6.35;;;4.50;99.90;;;;;;5062849;28;20218;-62
2022/02/12 12:07:13;;;;;;;6.93;6.20;;;4.50;99.90;;;;;;5062709;28;20208;-62
2022/02/12 12:10:13;;;;;;;9.00;7.28;;;4.50;99.90;;;;;;5062396;28;20208;-62
2022/02/12 12:12:44;;;;;;;6.50;5.90;;;4.50;99.90;;;;;;5062454;28;20308;-62
2022/02/12 12:15:26;;;;;;;7.60;6.80;;;4.40;99.90;;;;;;5062290;28;20297;-62
2022/02/12 12:18:02;;;;;;;8.93;7.15;;;4.50;99.90;;;;;;5062498;28;20646;-62
2022/02/12 12:20:37;;;;;;;6.80;6.13;;;4.50;99.90;;;;;;5062670;28;20259;-62
2022/02/12 12:23:10;;;;;;;6.80;5.97;;;4.50;99.90;;;;;;5071447;28;20214;-62
2022/02/12 12:26:00;;;;;;;7.55;6.40;;;4.50;99.90;;;;;;5082353;28;20255;-62
2022/02/12 12:28:34;;;;;;;6.13;5.47;;;4.50;99.90;;;;;;5083030;28;20257;-62
2022/02/12 12:31:06;;;;;;;6.80;6.15;;;4.50;99.90;;;;;;5083156;28;20608;-62
2022/02/12 12:33:43;;;;;;;6.78;6.05;;;4.50;99.90;;;;;;5081968;28;20262;-62
2022/02/12 12:36:16;;;;;;;7.68;6.30;;;4.50;99.90;;;;;;5082677;28;20205;-62
2022/02/12 12:38:49;;;;;;;6.97;5.85;;;4.50;99.90;;;;;;5081481;28;20233;-62
2022/02/12 12:41:31;;;;;;;6.93;6.22;;;4.50;99.90;;;;;;5082197;28;20232;-62
2022/02/12 12:44:15;;;;;;;6.43;5.90;;;4.40;99.90;;;;;;5081447;28;20739;-62
2022/02/12 12:46:49;;;;;;;6.30;5.70;;;4.30;99.90;;;;;;5083028;28;20204;-62
2022/02/12 12:49:29;;;;;;;6.35;5.72;;;4.30;99.90;;;;;;5082995;28;20284;-62
2022/02/12 12:52:07;;;;;;;7.40;6.80;;;4.30;99.90;;;;;;5081657;28;20712;-62
2022/02/12 12:54:40;;;;;;;7.00;5.63;;;4.20;99.90;;;;;;5073481;28;20741;-61
2022/02/12 12:57:14;;;;;;;6.50;5.80;;;4.20;99.90;;;;;;5062297;28;20233;-62
2022/02/12 12:59:51;;;;;;;5.72;5.20;;;4.20;99.90;;;;;;5065189;28;20229;-61
2022/02/12 13:02:23;;;;;;;6.53;4.90;;;4.20;99.90;;;;;;5065255;28;20198;-62
2022/02/12 13:04:55;;;;;;;6.55;4.88;;;4.10;99.90;;;;;;5073386;28;20276;-62
2022/02/12 13:07:28;;;;;;;5.40;4.90;;;4.10;99.90;;;;;;5085527;28;20212;-62
2022/02/12 13:10:00;;;;;;;6.00;4.45;;;4.10;99.90;;;;;;5085482;28;20205;-61
2022/02/12 13:12:35;;;;;;;4.18;3.83;;;4.00;99.90;;;;;;5085275;28;20268;-61
2022/02/12 13:15:09;;;;;;;5.13;3.92;;;4.10;99.90;;;;;;5084920;28;20212;-61
2022/02/12 13:17:44;;;;;;;4.55;4.10;;;4.10;99.90;;;;;;5085464;28;20205;-62
2022/02/12 13:20:17;;;;;;;5.57;5.07;;;4.10;99.90;;;;;;5085685;28;20596;-61
2022/02/12 13:22:54;;;;;;;5.03;4.47;;;4.10;99.90;;;;;;5085236;28;20709;-61
2022/02/12 13:25:27;;;;;;;4.97;4.32;;;4.10;99.90;;;;;;5084863;28;20243;-61
2022/02/12 13:28:00;;;;;;;6.85;4.93;;;4.10;99.90;;;;;;5085415;28;20236;-61
2022/02/12 13:30:34;;;;;;;4.90;4.50;;;4.10;99.90;;;;;;5085054;28;20235;-61
2022/02/12 13:33:06;;;;;;;5.72;4.75;;;4.00;99.90;;;;;;5085100;28;20205;-61